sensor_id;sensor_type;location;lat;lon;timestamp;temperature;humidity
44182;DHT22;30436;48.888;9.202;2022-08-03T00:01:53;25.00;74.90
44182;DHT22;30436;48.888;9.202;2022-08-03T00:04:18;25.00;73.80
44182;DHT22;30436;48.888;9.202;2022-08-03T00:06:44;24.80;73.80
44182;DHT22;30436;48.888;9.202;2022-08-03T00:09:10;24.70;75.90
44182;DHT22;30436;48.888;9.202;2022-08-03T00:11:36;24.80;75.40
44182;DHT22;30436;48.888;9.202;2022-08-03T00:14:05;24.50;75.60
44182;DHT22;30436;48.888;9.202;2022-08-03T00:16:30;24.70;74.60
44182;DHT22;30436;48.888;9.202;2022-08-03T00:18:56;24.90;74.20
44182;DHT22;30436;48.888;9.202;2022-08-03T00:21:22;24.80;75.50
44182;DHT22;30436;48.888;9.202;2022-08-03T00:23:47;24.70;73.80
44182;DHT22;30436;48.888;9.202;2022-08-03T00:26:13;24.80;74.40
44182;DHT22;30436;48.888;9.202;2022-08-03T00:28:39;24.60;73.00
44182;DHT22;30436;48.888;9.202;2022-08-03T00:31:05;24.70;75.60
44182;DHT22;30436;48.888;9.202;2022-08-03T00:33:31;24.80;74.00
44182;DHT22;30436;48.888;9.202;2022-08-03T00:35:57;24.80;75.00
44182;DHT22;30436;48.888;9.202;2022-08-03T00:38:23;24.60;76.00
44182;DHT22;30436;48.888;9.202;2022-08-03T00:40:48;24.70;74.90
44182;DHT22;30436;48.888;9.202;2022-08-03T00:43:14;24.80;74.70
44182;DHT22;30436;48.888;9.202;2022-08-03T00:45:41;24.90;78.50
44182;DHT22;30436;48.888;9.202;2022-08-03T00:48:09;24.90;77.40
44182;DHT22;30436;48.888;9.202;2022-08-03T00:50:39;24.90;77.70
44182;DHT22;30436;48.888;9.202;2022-08-03T00:53:06;24.90;79.80
44182;DHT22;30436;48.888;9.202;2022-08-03T00:55:35;25.00;81.60
44182;DHT22;30436;48.888;9.202;2022-08-03T00:58:02;25.10;80.30
44182;DHT22;30436;48.888;9.202;2022-08-03T01:00:31;25.10;78.70
44182;DHT22;30436;48.888;9.202;2022-08-03T01:02:57;25.10;79.80
44182;DHT22;30436;48.888;9.202;2022-08-03T01:05:23;24.90;79.00
44182;DHT22;30436;48.888;9.202;2022-08-03T01:16:18;24.40;80.40
44182;DHT22;30436;48.888;9.202;2022-08-03T01:21:43;24.20;80.30
44182;DHT22;30436;48.888;9.202;2022-08-03T01:27:06;24.10;83.90
44182;DHT22;30436;48.888;9.202;2022-08-03T01:29:56;24.30;83.70
44182;DHT22;30436;48.888;9.202;2022-08-03T01:32:32;24.10;84.00
44182;DHT22;30436;48.888;9.202;2022-08-03T01:35:09;24.10;86.20
44182;DHT22;30436;48.888;9.202;2022-08-03T01:37:43;24.20;86.80
44182;DHT22;30436;48.888;9.202;2022-08-03T01:40:11;24.30;84.00
44182;DHT22;30436;48.888;9.202;2022-08-03T01:42:39;24.30;87.60
44182;DHT22;30436;48.888;9.202;2022-08-03T01:45:08;24.30;88.20
44182;DHT22;30436;48.888;9.202;2022-08-03T01:47:35;24.20;88.30
44182;DHT22;30436;48.888;9.202;2022-08-03T01:50:02;24.10;87.20
44182;DHT22;30436;48.888;9.202;2022-08-03T01:52:29;24.10;88.60
44182;DHT22;30436;48.888;9.202;2022-08-03T01:54:57;24.00;88.20
44182;DHT22;30436;48.888;9.202;2022-08-03T01:57:24;24.00;88.10
44182;DHT22;30436;48.888;9.202;2022-08-03T01:59:54;24.00;87.20
44182;DHT22;30436;48.888;9.202;2022-08-03T02:02:21;23.80;87.00
44182;DHT22;30436;48.888;9.202;2022-08-03T02:04:49;23.80;88.30
44182;DHT22;30436;48.888;9.202;2022-08-03T02:07:17;23.70;87.30
44182;DHT22;30436;48.888;9.202;2022-08-03T02:09:45;23.60;87.30
44182;DHT22;30436;48.888;9.202;2022-08-03T02:12:12;23.50;88.60
44182;DHT22;30436;48.888;9.202;2022-08-03T02:14:40;23.70;90.00
44182;DHT22;30436;48.888;9.202;2022-08-03T02:17:08;23.50;89.20
44182;DHT22;30436;48.888;9.202;2022-08-03T02:19:34;23.40;89.10
44182;DHT22;30436;48.888;9.202;2022-08-03T02:22:01;23.50;90.20
44182;DHT22;30436;48.888;9.202;2022-08-03T02:24:30;23.30;90.30
44182;DHT22;30436;48.888;9.202;2022-08-03T02:26:56;23.30;90.90
44182;DHT22;30436;48.888;9.202;2022-08-03T02:29:25;23.30;91.10
44182;DHT22;30436;48.888;9.202;2022-08-03T02:31:53;23.30;91.40
44182;DHT22;30436;48.888;9.202;2022-08-03T02:34:25;23.40;91.90
44182;DHT22;30436;48.888;9.202;2022-08-03T02:36:53;23.40;90.50
44182;DHT22;30436;48.888;9.202;2022-08-03T02:39:23;23.40;91.00
44182;DHT22;30436;48.888;9.202;2022-08-03T02:41:51;23.40;92.00
44182;DHT22;30436;48.888;9.202;2022-08-03T02:44:23;23.30;91.90
44182;DHT22;30436;48.888;9.202;2022-08-03T02:46:53;23.40;92.20
44182;DHT22;30436;48.888;9.202;2022-08-03T02:49:20;23.40;91.70
44182;DHT22;30436;48.888;9.202;2022-08-03T02:51:46;23.30;91.70
44182;DHT22;30436;48.888;9.202;2022-08-03T02:54:15;23.40;92.00
44182;DHT22;30436;48.888;9.202;2022-08-03T02:56:44;23.40;92.20
44182;DHT22;30436;48.888;9.202;2022-08-03T02:59:11;23.40;92.50
44182;DHT22;30436;48.888;9.202;2022-08-03T03:01:38;23.10;93.30
44182;DHT22;30436;48.888;9.202;2022-08-03T03:04:04;23.30;92.80
44182;DHT22;30436;48.888;9.202;2022-08-03T03:06:31;23.40;92.80
44182;DHT22;30436;48.888;9.202;2022-08-03T03:08:57;23.30;92.30
44182;DHT22;30436;48.888;9.202;2022-08-03T03:11:24;23.30;92.80
44182;DHT22;30436;48.888;9.202;2022-08-03T03:13:51;23.30;93.20
44182;DHT22;30436;48.888;9.202;2022-08-03T03:16:18;23.30;93.00
44182;DHT22;30436;48.888;9.202;2022-08-03T03:18:45;23.20;93.20
44182;DHT22;30436;48.888;9.202;2022-08-03T03:21:12;23.30;91.90
44182;DHT22;30436;48.888;9.202;2022-08-03T03:23:41;23.30;92.90
44182;DHT22;30436;48.888;9.202;2022-08-03T03:26:08;22.90;93.20
44182;DHT22;30436;48.888;9.202;2022-08-03T03:28:34;23.10;94.50
44182;DHT22;30436;48.888;9.202;2022-08-03T03:31:04;23.30;94.00
44182;DHT22;30436;48.888;9.202;2022-08-03T03:33:30;22.90;95.50
44182;DHT22;30436;48.888;9.202;2022-08-03T03:35:57;22.90;94.20
44182;DHT22;30436;48.888;9.202;2022-08-03T03:38:23;22.90;95.30
44182;DHT22;30436;48.888;9.202;2022-08-03T03:40:49;22.90;95.40
44182;DHT22;30436;48.888;9.202;2022-08-03T03:43:14;23.10;95.20
44182;DHT22;30436;48.888;9.202;2022-08-03T03:45:43;23.10;95.00
44182;DHT22;30436;48.888;9.202;2022-08-03T03:48:09;23.00;95.70
44182;DHT22;30436;48.888;9.202;2022-08-03T03:50:36;23.20;97.60
44182;DHT22;30436;48.888;9.202;2022-08-03T03:53:02;23.10;96.80
44182;DHT22;30436;48.888;9.202;2022-08-03T03:55:28;22.90;95.20
44182;DHT22;30436;48.888;9.202;2022-08-03T03:57:55;22.90;96.10
44182;DHT22;30436;48.888;9.202;2022-08-03T04:00:21;22.70;98.50
44182;DHT22;30436;48.888;9.202;2022-08-03T04:02:47;22.70;99.20
44182;DHT22;30436;48.888;9.202;2022-08-03T04:05:14;22.80;98.30
44182;DHT22;30436;48.888;9.202;2022-08-03T04:08:27;22.80;98.20
44182;DHT22;30436;48.888;9.202;2022-08-03T04:11:13;22.80;98.30
44182;DHT22;30436;48.888;9.202;2022-08-03T04:13:59;23.00;99.90
44182;DHT22;30436;48.888;9.202;2022-08-03T04:16:33;23.00;99.30
44182;DHT22;30436;48.888;9.202;2022-08-03T04:19:12;23.00;98.90
44182;DHT22;30436;48.888;9.202;2022-08-03T04:21:43;23.00;99.20
44182;DHT22;30436;48.888;9.202;2022-08-03T04:24:13;22.70;99.50
44182;DHT22;30436;48.888;9.202;2022-08-03T04:26:40;22.70;99.90
44182;DHT22;30436;48.888;9.202;2022-08-03T04:29:09;22.70;99.90
44182;DHT22;30436;48.888;9.202;2022-08-03T04:31:35;22.80;99.90
44182;DHT22;30436;48.888;9.202;2022-08-03T04:34:03;22.60;99.90
44182;DHT22;30436;48.888;9.202;2022-08-03T04:36:32;22.50;99.90
44182;DHT22;30436;48.888;9.202;2022-08-03T04:41:26;22.50;99.90
44182;DHT22;30436;48.888;9.202;2022-08-03T04:43:54;22.50;99.90
44182;DHT22;30436;48.888;9.202;2022-08-03T04:46:22;22.30;99.90
44182;DHT22;30436;48.888;9.202;2022-08-03T04:48:50;22.40;99.90
44182;DHT22;30436;48.888;9.202;2022-08-03T04:51:16;22.30;99.90
44182;DHT22;30436;48.888;9.202;2022-08-03T04:53:42;22.30;99.90
44182;DHT22;30436;48.888;9.202;2022-08-03T04:56:08;22.50;99.90
44182;DHT22;30436;48.888;9.202;2022-08-03T04:58:34;22.30;99.90
44182;DHT22;30436;48.888;9.202;2022-08-03T05:00:59;22.30;99.90
44182;DHT22;30436;48.888;9.202;2022-08-03T05:03:25;22.40;99.90
44182;DHT22;30436;48.888;9.202;2022-08-03T05:05:51;22.50;99.90
44182;DHT22;30436;48.888;9.202;2022-08-03T05:08:17;22.50;99.90
44182;DHT22;30436;48.888;9.202;2022-08-03T05:10:43;22.30;99.90
44182;DHT22;30436;48.888;9.202;2022-08-03T05:13:08;22.30;99.90
44182;DHT22;30436;48.888;9.202;2022-08-03T05:15:37;22.20;99.90
44182;DHT22;30436;48.888;9.202;2022-08-03T05:18:03;22.20;99.90
44182;DHT22;30436;48.888;9.202;2022-08-03T05:20:29;22.20;99.90
44182;DHT22;30436;48.888;9.202;2022-08-03T05:22:55;22.30;99.90
44182;DHT22;30436;48.888;9.202;2022-08-03T05:25:21;22.30;99.90
44182;DHT22;30436;48.888;9.202;2022-08-03T05:27:47;22.30;99.90
44182;DHT22;30436;48.888;9.202;2022-08-03T05:30:13;22.20;99.90
44182;DHT22;30436;48.888;9.202;2022-08-03T05:32:39;22.20;99.90
44182;DHT22;30436;48.888;9.202;2022-08-03T05:35:05;22.10;99.90
44182;DHT22;30436;48.888;9.202;2022-08-03T05:37:31;22.10;99.90
44182;DHT22;30436;48.888;9.202;2022-08-03T05:39:56;22.10;99.90
44182;DHT22;30436;48.888;9.202;2022-08-03T05:42:22;22.20;99.90
44182;DHT22;30436;48.888;9.202;2022-08-03T05:44:47;22.20;99.90
44182;DHT22;30436;48.888;9.202;2022-08-03T05:47:13;22.10;99.90
44182;DHT22;30436;48.888;9.202;2022-08-03T05:49:39;22.20;99.90
44182;DHT22;30436;48.888;9.202;2022-08-03T05:52:04;22.40;99.90
44182;DHT22;30436;48.888;9.202;2022-08-03T05:54:30;22.30;99.90
44182;DHT22;30436;48.888;9.202;2022-08-03T05:56:56;22.50;99.90
44182;DHT22;30436;48.888;9.202;2022-08-03T05:59:21;22.60;99.90
44182;DHT22;30436;48.888;9.202;2022-08-03T06:01:47;22.70;99.90
44182;DHT22;30436;48.888;9.202;2022-08-03T06:04:13;22.70;99.90
44182;DHT22;30436;48.888;9.202;2022-08-03T06:06:38;22.80;99.90
44182;DHT22;30436;48.888;9.202;2022-08-03T06:09:04;22.90;99.90
44182;DHT22;30436;48.888;9.202;2022-08-03T06:11:30;23.00;99.90
44182;DHT22;30436;48.888;9.202;2022-08-03T06:13:55;22.90;99.90
44182;DHT22;30436;48.888;9.202;2022-08-03T06:16:21;23.10;99.90
44182;DHT22;30436;48.888;9.202;2022-08-03T06:18:47;23.30;99.90
44182;DHT22;30436;48.888;9.202;2022-08-03T06:21:12;23.40;99.90
44182;DHT22;30436;48.888;9.202;2022-08-03T06:23:44;23.60;99.90
44182;DHT22;30436;48.888;9.202;2022-08-03T06:26:10;23.60;99.90
44182;DHT22;30436;48.888;9.202;2022-08-03T06:28:35;23.60;99.90
44182;DHT22;30436;48.888;9.202;2022-08-03T06:31:01;23.60;99.90
44182;DHT22;30436;48.888;9.202;2022-08-03T06:33:28;23.70;99.90
44182;DHT22;30436;48.888;9.202;2022-08-03T06:35:54;23.90;99.90
44182;DHT22;30436;48.888;9.202;2022-08-03T06:38:19;23.90;99.90
44182;DHT22;30436;48.888;9.202;2022-08-03T06:40:45;24.00;99.90
44182;DHT22;30436;48.888;9.202;2022-08-03T06:43:11;24.10;99.90
44182;DHT22;30436;48.888;9.202;2022-08-03T06:45:38;24.10;99.80
44182;DHT22;30436;48.888;9.202;2022-08-03T06:50:32;24.30;98.80
44182;DHT22;30436;48.888;9.202;2022-08-03T06:52:58;24.40;98.70
44182;DHT22;30436;48.888;9.202;2022-08-03T06:55:23;24.60;98.90
44182;DHT22;30436;48.888;9.202;2022-08-03T06:57:49;24.70;98.90
44182;DHT22;30436;48.888;9.202;2022-08-03T07:00:15;24.90;98.10
44182;DHT22;30436;48.888;9.202;2022-08-03T07:02:41;25.00;96.70
44182;DHT22;30436;48.888;9.202;2022-08-03T07:05:07;25.10;98.10
44182;DHT22;30436;48.888;9.202;2022-08-03T07:07:33;25.10;95.50
44182;DHT22;30436;48.888;9.202;2022-08-03T07:09:59;25.30;96.20
44182;DHT22;30436;48.888;9.202;2022-08-03T07:12:26;25.30;98.00
44182;DHT22;30436;48.888;9.202;2022-08-03T07:14:53;25.50;96.20
44182;DHT22;30436;48.888;9.202;2022-08-03T07:17:18;25.60;94.80
44182;DHT22;30436;48.888;9.202;2022-08-03T07:19:44;25.60;93.70
44182;DHT22;30436;48.888;9.202;2022-08-03T07:22:10;25.70;93.70
44182;DHT22;30436;48.888;9.202;2022-08-03T07:24:35;25.80;93.40
44182;DHT22;30436;48.888;9.202;2022-08-03T07:27:01;25.80;94.00
44182;DHT22;30436;48.888;9.202;2022-08-03T07:29:27;25.90;94.00
44182;DHT22;30436;48.888;9.202;2022-08-03T07:31:53;26.00;92.30
44182;DHT22;30436;48.888;9.202;2022-08-03T07:34:19;26.20;94.40
44182;DHT22;30436;48.888;9.202;2022-08-03T07:36:44;26.30;91.80
44182;DHT22;30436;48.888;9.202;2022-08-03T07:39:10;26.30;91.30
44182;DHT22;30436;48.888;9.202;2022-08-03T07:41:36;26.40;89.70
44182;DHT22;30436;48.888;9.202;2022-08-03T07:44:02;26.70;91.30
44182;DHT22;30436;48.888;9.202;2022-08-03T07:46:27;26.70;90.40
44182;DHT22;30436;48.888;9.202;2022-08-03T07:48:53;26.80;90.90
44182;DHT22;30436;48.888;9.202;2022-08-03T07:51:19;26.90;89.70
44182;DHT22;30436;48.888;9.202;2022-08-03T07:53:44;27.00;90.90
44182;DHT22;30436;48.888;9.202;2022-08-03T07:56:10;27.00;86.90
44182;DHT22;30436;48.888;9.202;2022-08-03T07:58:35;27.00;86.30
44182;DHT22;30436;48.888;9.202;2022-08-03T08:01:01;27.10;84.20
44182;DHT22;30436;48.888;9.202;2022-08-03T08:03:27;27.30;88.00
44182;DHT22;30436;48.888;9.202;2022-08-03T08:05:53;27.30;85.00
44182;DHT22;30436;48.888;9.202;2022-08-03T08:08:19;27.40;85.20
44182;DHT22;30436;48.888;9.202;2022-08-03T08:10:46;27.40;83.20
44182;DHT22;30436;48.888;9.202;2022-08-03T08:13:11;27.40;83.00
44182;DHT22;30436;48.888;9.202;2022-08-03T08:15:37;27.40;83.80
44182;DHT22;30436;48.888;9.202;2022-08-03T08:18:03;27.50;79.10
44182;DHT22;30436;48.888;9.202;2022-08-03T08:20:31;27.50;82.20
44182;DHT22;30436;48.888;9.202;2022-08-03T08:23:02;27.60;80.40
44182;DHT22;30436;48.888;9.202;2022-08-03T08:25:29;27.70;81.20
44182;DHT22;30436;48.888;9.202;2022-08-03T08:27:55;27.80;78.00
44182;DHT22;30436;48.888;9.202;2022-08-03T08:30:22;27.80;80.00
44182;DHT22;30436;48.888;9.202;2022-08-03T08:32:49;28.00;78.10
44182;DHT22;30436;48.888;9.202;2022-08-03T08:35:15;28.00;78.20
44182;DHT22;30436;48.888;9.202;2022-08-03T08:37:40;28.10;76.20
44182;DHT22;30436;48.888;9.202;2022-08-03T08:40:08;28.30;76.50
44182;DHT22;30436;48.888;9.202;2022-08-03T08:42:40;28.30;76.20
44182;DHT22;30436;48.888;9.202;2022-08-03T08:45:06;28.50;76.50
44182;DHT22;30436;48.888;9.202;2022-08-03T08:47:38;28.50;75.90
44182;DHT22;30436;48.888;9.202;2022-08-03T08:50:05;28.60;75.60
44182;DHT22;30436;48.888;9.202;2022-08-03T08:52:33;28.60;74.20
44182;DHT22;30436;48.888;9.202;2022-08-03T08:55:02;28.80;74.50
44182;DHT22;30436;48.888;9.202;2022-08-03T08:57:43;28.90;73.60
44182;DHT22;30436;48.888;9.202;2022-08-03T09:00:11;29.00;75.50
44182;DHT22;30436;48.888;9.202;2022-08-03T09:02:41;29.10;73.10
44182;DHT22;30436;48.888;9.202;2022-08-03T09:05:17;29.20;70.40
44182;DHT22;30436;48.888;9.202;2022-08-03T09:07:44;29.30;68.90
44182;DHT22;30436;48.888;9.202;2022-08-03T09:10:11;29.30;67.50
44182;DHT22;30436;48.888;9.202;2022-08-03T09:15:25;29.50;72.10
44182;DHT22;30436;48.888;9.202;2022-08-03T09:17:54;29.70;66.00
44182;DHT22;30436;48.888;9.202;2022-08-03T09:20:22;29.70;67.10
44182;DHT22;30436;48.888;9.202;2022-08-03T09:25:32;30.20;69.60
44182;DHT22;30436;48.888;9.202;2022-08-03T09:28:17;30.10;66.10
44182;DHT22;30436;48.888;9.202;2022-08-03T09:30:45;30.30;69.70
44182;DHT22;30436;48.888;9.202;2022-08-03T09:33:22;30.60;66.90
44182;DHT22;30436;48.888;9.202;2022-08-03T09:35:48;30.70;64.10
44182;DHT22;30436;48.888;9.202;2022-08-03T09:38:18;30.80;61.90
44182;DHT22;30436;48.888;9.202;2022-08-03T09:40:48;31.00;62.20
44182;DHT22;30436;48.888;9.202;2022-08-03T09:43:14;31.00;63.70
44182;DHT22;30436;48.888;9.202;2022-08-03T09:45:39;31.20;59.80
44182;DHT22;30436;48.888;9.202;2022-08-03T09:48:23;31.30;60.50
44182;DHT22;30436;48.888;9.202;2022-08-03T09:50:54;31.60;59.60
44182;DHT22;30436;48.888;9.202;2022-08-03T09:53:21;31.80;60.10
44182;DHT22;30436;48.888;9.202;2022-08-03T09:55:53;31.90;59.50
44182;DHT22;30436;48.888;9.202;2022-08-03T09:58:21;32.10;59.30
44182;DHT22;30436;48.888;9.202;2022-08-03T10:03:23;32.20;57.70
44182;DHT22;30436;48.888;9.202;2022-08-03T10:05:49;32.30;56.40
44182;DHT22;30436;48.888;9.202;2022-08-03T10:08:17;32.40;57.30
44182;DHT22;30436;48.888;9.202;2022-08-03T10:10:44;32.60;58.00
44182;DHT22;30436;48.888;9.202;2022-08-03T10:13:12;32.80;54.20
44182;DHT22;30436;48.888;9.202;2022-08-03T10:15:41;32.80;54.80
44182;DHT22;30436;48.888;9.202;2022-08-03T10:18:07;32.90;54.60
44182;DHT22;30436;48.888;9.202;2022-08-03T10:20:49;32.90;54.40
44182;DHT22;30436;48.888;9.202;2022-08-03T10:23:17;33.20;58.20
44182;DHT22;30436;48.888;9.202;2022-08-03T10:25:46;33.40;54.90
44182;DHT22;30436;48.888;9.202;2022-08-03T10:28:14;33.40;54.60
44182;DHT22;30436;48.888;9.202;2022-08-03T10:30:43;33.60;56.50
44182;DHT22;30436;48.888;9.202;2022-08-03T10:33:23;33.40;54.20
44182;DHT22;30436;48.888;9.202;2022-08-03T10:35:54;33.70;55.60
44182;DHT22;30436;48.888;9.202;2022-08-03T10:38:25;33.90;56.50
44182;DHT22;30436;48.888;9.202;2022-08-03T10:40:53;34.00;54.70
44182;DHT22;30436;48.888;9.202;2022-08-03T10:43:24;34.10;54.40
44182;DHT22;30436;48.888;9.202;2022-08-03T10:45:51;34.10;54.80
44182;DHT22;30436;48.888;9.202;2022-08-03T10:48:17;34.30;54.60
44182;DHT22;30436;48.888;9.202;2022-08-03T10:50:44;34.20;53.20
44182;DHT22;30436;48.888;9.202;2022-08-03T10:53:10;34.10;53.70
44182;DHT22;30436;48.888;9.202;2022-08-03T10:55:43;34.30;53.30
44182;DHT22;30436;48.888;9.202;2022-08-03T11:01:07;34.10;52.70
44182;DHT22;30436;48.888;9.202;2022-08-03T11:06:21;34.50;52.40
44182;DHT22;30436;48.888;9.202;2022-08-03T11:09:12;34.80;55.70
44182;DHT22;30436;48.888;9.202;2022-08-03T11:11:39;35.00;53.70
44182;DHT22;30436;48.888;9.202;2022-08-03T11:14:14;35.20;52.50
44182;DHT22;30436;48.888;9.202;2022-08-03T11:16:45;35.30;52.50
44182;DHT22;30436;48.888;9.202;2022-08-03T11:19:14;35.50;52.10
44182;DHT22;30436;48.888;9.202;2022-08-03T11:29:57;35.90;50.20
44182;DHT22;30436;48.888;9.202;2022-08-03T11:40:51;35.70;50.30
44182;DHT22;30436;48.888;9.202;2022-08-03T11:46:03;35.40;49.40
44182;DHT22;30436;48.888;9.202;2022-08-03T11:48:39;35.60;51.50
44182;DHT22;30436;48.888;9.202;2022-08-03T11:51:24;35.80;50.60
44182;DHT22;30436;48.888;9.202;2022-08-03T11:53:52;35.80;49.90
44182;DHT22;30436;48.888;9.202;2022-08-03T11:56:18;35.90;50.90
44182;DHT22;30436;48.888;9.202;2022-08-03T11:58:55;35.90;48.40
44182;DHT22;30436;48.888;9.202;2022-08-03T12:01:22;35.70;47.40
44182;DHT22;30436;48.888;9.202;2022-08-03T12:03:48;35.70;47.50
44182;DHT22;30436;48.888;9.202;2022-08-03T12:06:15;35.80;48.30
44182;DHT22;30436;48.888;9.202;2022-08-03T12:08:42;35.70;47.10
44182;DHT22;30436;48.888;9.202;2022-08-03T12:11:10;35.60;47.70
44182;DHT22;30436;48.888;9.202;2022-08-03T12:13:42;35.50;46.20
44182;DHT22;30436;48.888;9.202;2022-08-03T12:16:08;35.60;46.00
44182;DHT22;30436;48.888;9.202;2022-08-03T12:18:34;35.80;47.00
44182;DHT22;30436;48.888;9.202;2022-08-03T12:21:08;35.70;47.90
44182;DHT22;30436;48.888;9.202;2022-08-03T12:23:35;35.60;47.40
44182;DHT22;30436;48.888;9.202;2022-08-03T12:26:03;35.70;49.00
44182;DHT22;30436;48.888;9.202;2022-08-03T12:28:29;35.90;48.10
44182;DHT22;30436;48.888;9.202;2022-08-03T12:31:01;36.10;48.00
44182;DHT22;30436;48.888;9.202;2022-08-03T12:33:27;36.30;46.30
44182;DHT22;30436;48.888;9.202;2022-08-03T12:36:05;36.40;47.10
44182;DHT22;30436;48.888;9.202;2022-08-03T12:38:32;36.20;46.80
44182;DHT22;30436;48.888;9.202;2022-08-03T12:41:06;36.20;46.40
44182;DHT22;30436;48.888;9.202;2022-08-03T12:43:33;36.10;45.00
44182;DHT22;30436;48.888;9.202;2022-08-03T12:46:09;36.20;45.10
44182;DHT22;30436;48.888;9.202;2022-08-03T12:48:35;36.20;44.70
44182;DHT22;30436;48.888;9.202;2022-08-03T12:51:10;36.20;44.50
44182;DHT22;30436;48.888;9.202;2022-08-03T12:53:36;36.20;45.20
44182;DHT22;30436;48.888;9.202;2022-08-03T12:56:03;36.10;44.20
44182;DHT22;30436;48.888;9.202;2022-08-03T12:58:32;36.10;47.20
44182;DHT22;30436;48.888;9.202;2022-08-03T13:00:58;36.20;46.70
44182;DHT22;30436;48.888;9.202;2022-08-03T13:03:24;36.40;47.10
44182;DHT22;30436;48.888;9.202;2022-08-03T13:05:49;36.50;46.20
44182;DHT22;30436;48.888;9.202;2022-08-03T13:08:23;36.40;47.40
44182;DHT22;30436;48.888;9.202;2022-08-03T13:10:50;36.60;47.00
44182;DHT22;30436;48.888;9.202;2022-08-03T13:13:16;36.70;46.20
44182;DHT22;30436;48.888;9.202;2022-08-03T13:15:42;36.90;45.90
44182;DHT22;30436;48.888;9.202;2022-08-03T13:18:07;37.00;43.90
44182;DHT22;30436;48.888;9.202;2022-08-03T13:20:34;37.00;45.80
44182;DHT22;30436;48.888;9.202;2022-08-03T13:23:00;37.20;45.70
44182;DHT22;30436;48.888;9.202;2022-08-03T13:25:25;37.20;45.40
44182;DHT22;30436;48.888;9.202;2022-08-03T13:27:51;37.20;44.20
44182;DHT22;30436;48.888;9.202;2022-08-03T13:30:17;37.00;44.80
44182;DHT22;30436;48.888;9.202;2022-08-03T13:32:43;37.10;46.30
44182;DHT22;30436;48.888;9.202;2022-08-03T13:35:09;37.30;45.80
44182;DHT22;30436;48.888;9.202;2022-08-03T13:37:35;37.20;45.80
44182;DHT22;30436;48.888;9.202;2022-08-03T13:40:03;37.00;43.20
44182;DHT22;30436;48.888;9.202;2022-08-03T13:42:31;36.80;44.40
44182;DHT22;30436;48.888;9.202;2022-08-03T13:44:57;37.00;46.00
44182;DHT22;30436;48.888;9.202;2022-08-03T13:47:22;37.20;46.10
44182;DHT22;30436;48.888;9.202;2022-08-03T13:49:48;37.20;46.00
44182;DHT22;30436;48.888;9.202;2022-08-03T13:52:16;37.10;43.60
44182;DHT22;30436;48.888;9.202;2022-08-03T13:54:41;37.00;44.10
44182;DHT22;30436;48.888;9.202;2022-08-03T13:57:07;36.70;45.00
44182;DHT22;30436;48.888;9.202;2022-08-03T13:59:33;36.80;45.70
44182;DHT22;30436;48.888;9.202;2022-08-03T14:01:59;36.80;45.60
44182;DHT22;30436;48.888;9.202;2022-08-03T14:04:24;36.70;44.80
44182;DHT22;30436;48.888;9.202;2022-08-03T14:06:50;36.70;44.80
44182;DHT22;30436;48.888;9.202;2022-08-03T14:09:15;36.80;46.30
44182;DHT22;30436;48.888;9.202;2022-08-03T14:11:42;36.90;45.80
44182;DHT22;30436;48.888;9.202;2022-08-03T14:14:09;36.70;45.80
44182;DHT22;30436;48.888;9.202;2022-08-03T14:16:36;36.60;45.30
44182;DHT22;30436;48.888;9.202;2022-08-03T14:19:02;36.40;45.00
44182;DHT22;30436;48.888;9.202;2022-08-03T14:21:28;36.40;45.60
44182;DHT22;30436;48.888;9.202;2022-08-03T14:23:54;36.40;44.10
44182;DHT22;30436;48.888;9.202;2022-08-03T14:26:21;36.30;44.70
44182;DHT22;30436;48.888;9.202;2022-08-03T14:28:47;36.30;45.40
44182;DHT22;30436;48.888;9.202;2022-08-03T14:31:12;36.30;45.30
44182;DHT22;30436;48.888;9.202;2022-08-03T14:33:38;36.40;45.60
44182;DHT22;30436;48.888;9.202;2022-08-03T14:36:04;36.40;45.30
44182;DHT22;30436;48.888;9.202;2022-08-03T14:38:31;36.30;45.10
44182;DHT22;30436;48.888;9.202;2022-08-03T14:40:57;36.10;44.90
44182;DHT22;30436;48.888;9.202;2022-08-03T14:43:22;36.00;44.20
44182;DHT22;30436;48.888;9.202;2022-08-03T14:45:50;36.10;45.80
44182;DHT22;30436;48.888;9.202;2022-08-03T14:48:18;36.00;45.10
44182;DHT22;30436;48.888;9.202;2022-08-03T14:50:44;35.90;43.80
44182;DHT22;30436;48.888;9.202;2022-08-03T14:53:10;35.90;46.20
44182;DHT22;30436;48.888;9.202;2022-08-03T14:55:36;35.90;46.00
44182;DHT22;30436;48.888;9.202;2022-08-03T14:58:01;35.90;45.80
44182;DHT22;30436;48.888;9.202;2022-08-03T15:00:34;35.90;46.40
44182;DHT22;30436;48.888;9.202;2022-08-03T15:03:00;35.80;46.70
44182;DHT22;30436;48.888;9.202;2022-08-03T15:05:26;35.80;46.90
44182;DHT22;30436;48.888;9.202;2022-08-03T15:07:52;35.80;46.20
44182;DHT22;30436;48.888;9.202;2022-08-03T15:10:18;35.70;46.80
44182;DHT22;30436;48.888;9.202;2022-08-03T15:12:44;35.70;47.80
44182;DHT22;30436;48.888;9.202;2022-08-03T15:15:10;35.60;47.70
44182;DHT22;30436;48.888;9.202;2022-08-03T15:17:36;35.60;47.00
44182;DHT22;30436;48.888;9.202;2022-08-03T15:20:03;35.50;46.80
44182;DHT22;30436;48.888;9.202;2022-08-03T15:22:29;35.60;46.40
44182;DHT22;30436;48.888;9.202;2022-08-03T15:24:54;35.50;48.00
44182;DHT22;30436;48.888;9.202;2022-08-03T15:27:21;35.60;46.90
44182;DHT22;30436;48.888;9.202;2022-08-03T15:29:47;35.60;46.90
44182;DHT22;30436;48.888;9.202;2022-08-03T15:32:13;35.60;46.90
44182;DHT22;30436;48.888;9.202;2022-08-03T15:34:39;35.70;47.40
44182;DHT22;30436;48.888;9.202;2022-08-03T15:37:05;35.80;46.80
44182;DHT22;30436;48.888;9.202;2022-08-03T15:39:31;35.80;47.20
44182;DHT22;30436;48.888;9.202;2022-08-03T15:41:57;35.90;46.80
44182;DHT22;30436;48.888;9.202;2022-08-03T15:44:23;35.90;47.40
44182;DHT22;30436;48.888;9.202;2022-08-03T15:46:51;35.90;49.90
44182;DHT22;30436;48.888;9.202;2022-08-03T15:49:17;35.90;47.20
44182;DHT22;30436;48.888;9.202;2022-08-03T15:51:45;35.90;47.60
44182;DHT22;30436;48.888;9.202;2022-08-03T15:54:11;35.90;47.00
44182;DHT22;30436;48.888;9.202;2022-08-03T15:56:36;35.90;48.20
44182;DHT22;30436;48.888;9.202;2022-08-03T15:59:03;35.70;47.50
44182;DHT22;30436;48.888;9.202;2022-08-03T16:01:29;35.60;48.30
44182;DHT22;30436;48.888;9.202;2022-08-03T16:03:55;35.50;47.80
44182;DHT22;30436;48.888;9.202;2022-08-03T16:06:20;35.30;46.80
44182;DHT22;30436;48.888;9.202;2022-08-03T16:08:46;35.20;47.40
44182;DHT22;30436;48.888;9.202;2022-08-03T16:11:12;35.10;47.70
44182;DHT22;30436;48.888;9.202;2022-08-03T16:13:38;35.00;48.50
44182;DHT22;30436;48.888;9.202;2022-08-03T16:16:04;34.80;46.20
44182;DHT22;30436;48.888;9.202;2022-08-03T16:18:29;34.60;46.10
44182;DHT22;30436;48.888;9.202;2022-08-03T16:20:58;34.50;46.90
44182;DHT22;30436;48.888;9.202;2022-08-03T16:23:25;34.50;47.90
44182;DHT22;30436;48.888;9.202;2022-08-03T16:25:50;34.50;48.20